• Join FlightAware (Why Join?)
  • Login
  • US Flag 
09:28AM EDT


 

Airport Tracker/Info


-or-


 

Live Flight TrackerFlight Track Log ✈ CJT574 ✈ 08-Jul-2013 ✈ CYEG - CYWG

Flight Track Log - Related Links

Times and Time Zones

All times are in EDT time to prevent confusion due to time zone crossing. See the CJT574 flight status page for this flight to view local times or setup timezone preferences in your user account.

Time Position Orientation Groundspeed Altitude Reporting Facility
EDT Latitude Longitude Course Direction KTS MPH feet Rate Location/Type
11:44PM 53.2833 -113.6000 149° Southeast 20 23 2,400  Level Edmonton Center
11:45PM 53.2500 -113.5667 149° Southeast 160 184 3,200 1,140 Climbing Edmonton Center
11:46PM 53.2167 -113.5167 138° Southeast 180 207 4,700 1,440 Climbing Edmonton Center
11:47PM 53.2000 -113.4167 106° East 190 219 6,100 960 Climbing Edmonton Center
11:48PM 53.2000 -113.3333 90° East 230 265 6,700 1,380 Climbing Edmonton Center
11:49PM 53.2000 -113.2000 90° East 270 311 8,900 2,040 Climbing Edmonton Center
11:50PM 53.2167 -113.0833 77° East 290 334 10,800 1,740 Climbing Edmonton Center
11:51PM 53.2167 -112.9500 90° East 330 380 12,400 1,800 Climbing Edmonton Center
11:52PM 53.2167 -112.7667 90° East 340 391 14,500 1,500 Climbing Edmonton Center
11:53PM 53.2333 -112.6000 80° East 360 414 15,400 1,260 Climbing Edmonton Center
11:54PM 53.2500 -112.4000 82° East 390 449 17,100 1,680 Climbing Edmonton Center
11:55PM 53.2333 -112.2333 99° East 390 449 18,800 1,500 Climbing Edmonton Center
11:56PM 53.1833 -112.0500 114° Southeast 410 472 20,100 1,500 Climbing Edmonton Center
11:57PM 53.1667 -111.8500 98° East 430 495 21,900 1,560 Climbing Edmonton Center
11:58PM 53.1167 -111.6500 113° Southeast 430 495 23,300 1,440 Climbing Edmonton Center
11:59PM 53.0833 -111.4667 107° East 440 506 24,800 1,020 Climbing Edmonton Center
12:00AM 53.0333 -111.2667 113° Southeast 450 518 25,400 1,020 Climbing Edmonton Center
12:01AM 53.0000 -111.0333 103° East 470 541 26,900 1,260 Climbing Edmonton Center
12:02AM 52.9667 -110.8667 108° East 470 541 28,000 1,020 Climbing Edmonton Center
12:03AM 52.9167 -110.6333 109° East 480 552 29,000 900 Climbing Edmonton Center
12:04AM 52.8833 -110.4333 105° East 480 552 29,800 900 Climbing Edmonton Center
12:05AM 52.8333 -110.1667 107° East 490 564 30,800 780 Climbing Edmonton Center
12:06AM 52.8000 -109.9667 105° East 490 564 31,400 600 Climbing Edmonton Center
12:07AM 52.7667 -109.7500 104° East 500 575 32,100 720 Climbing Edmonton Center
12:08AM 52.7167 -109.5167 109° East 510 587 32,900 840 Climbing Edmonton Center
12:09AM 52.6667 -109.3167 112° Southeast 510 587 33,800 840 Climbing Edmonton Center
12:10AM 52.6333 -109.0667 102° East 510 587 34,600 600 Climbing Edmonton Center
12:11AM 52.5833 -108.8667 112° Southeast 510 587 35,000 180 Climbing Edmonton Center
12:12AM 52.5500 -108.6000 102° East 510 587 35,000  Level Edmonton Center
12:13AM 52.5000 -108.4000 112° Southeast 510 587 35,000  Level Edmonton Center
12:14AM 52.4500 -108.1833 111° Southeast 510 587 35,000  Level Edmonton Center
12:15AM 52.4167 -107.9500 103° East 510 587 35,000  Level Edmonton Center
12:16AM 52.3667 -107.7333 111° Southeast 510 587 35,000  Level Edmonton Center
12:17AM 52.3167 -107.5000 109° East 510 587 35,000  Level Edmonton Center
12:18AM 52.2833 -107.2833 104° East 510 587 35,000  Level Edmonton Center
12:19AM 52.2333 -107.0667 111° Southeast 510 587 35,000  Level Edmonton Center
12:20AM 52.1833 -106.8667 112° Southeast 500 575 35,000  Level Edmonton Center
12:21AM 52.1333 -106.6167 108° East 510 587 35,000  Level Edmonton Center
12:22AM 52.0833 -106.4167 112° Southeast 510 587 35,000  Level Edmonton Center
12:23AM 52.0500 -106.2000 104° East 500 575 35,000  Level Edmonton Center
12:24AM 52.0167 -105.9833 104° East 500 575 35,000  Level Edmonton Center
12:25AM 51.9667 -105.7667 110° East 510 587 35,000  Level Edmonton Center
12:26AM 51.9167 -105.5333 109° East 510 587 35,000  Level Edmonton Center
12:27AM 51.8833 -105.3000 103° East 510 587 35,000  Level Edmonton Center
12:28AM 51.8333 -105.1000 112° Southeast 510 587 35,000 -420 Level Edmonton Center
12:29AM 51.7833 -104.8833 110° East 490 564 34,200 -960 Descending Edmonton Center
12:30AM 51.7500 -104.7000 106° East 460 529 33,100 -1,140 Descending Edmonton Center
12:31AM 51.6833 -104.5000 118° Southeast 470 541 32,000 -900 Descending Edmonton Center
12:32AM 51.6500 -104.2500 102° East 490 564 31,400 -540 Descending Edmonton Center
12:33AM 51.6000 -104.0667 114° Southeast 500 575 31,000 -240 Descending Edmonton Center
12:34AM 51.5500 -103.8167 108° East 510 587 31,000  Level Edmonton Center
12:35AM 51.5167 -103.6333 106° East 510 587 31,000  Level Edmonton Center
12:36AM 51.4667 -103.4167 110° East 520 598 31,000  Level Edmonton Center
12:37AM 51.4000 -103.1833 115° Southeast 530 610 31,000  Level Edmonton Center
12:38AM 51.3500 -102.9667 110° East 530 610 31,000  Level Edmonton Center
12:39AM 51.3000 -102.7167 108° East 530 610 31,000  Level Edmonton Center
12:40AM 51.2500 -102.5167 112° Southeast 530 610 31,000  Level Edmonton Center
12:41AM 51.2000 -102.3000 110° East 520 598 31,000  Level Edmonton Center
12:42AM 51.1500 -102.0667 109° East 530 610 31,000  Level Edmonton Center
12:43AM 51.1000 -101.8500 110° East 530 610 31,000  Level Edmonton Center
12:44AM 51.0667 -101.6167 103° East 530 610 31,000  Level Edmonton Center
12:45AM 51.0167 -101.4000 110° East 530 610 31,000  Level Edmonton Center
12:46AM 50.9667 -101.1667 109° East 530 610 31,000  Level Edmonton Center
12:47AM 50.9333 -100.9500 104° East 530 610 31,000  Level Winnipeg Center
12:48AM 50.8667 -100.7667 120° Southeast 530 610 31,000  Level Winnipeg Center
12:49AM 50.8333 -100.5167 102° East 520 598 31,000  Level Winnipeg Center
12:50AM 50.7833 -100.3000 110° East 520 598 31,000  Level Winnipeg Center
12:51AM 50.7333 -100.1167 113° Southeast 520 598 31,000  Level Winnipeg Center
12:52AM 50.6833 -99.8667 107° East 520 598 31,000  Level Winnipeg Center
12:53AM 50.6333 -99.6500 110° East 530 610 31,000  Level Winnipeg Center
12:54AM 50.5667 -99.4500 118° Southeast 530 610 31,000  Level Winnipeg Center
12:55AM 50.5333 -99.2333 104° East 530 610 31,000 -300 Level Winnipeg Center
12:56AM 50.4833 -99.0167 110° East 520 598 30,500 -1,080 Descending Winnipeg Center
12:57AM 50.4333 -98.8000 110° East 490 564 28,900 -2,040 Descending Winnipeg Center
12:58AM 50.3833 -98.6167 113° Southeast 470 541 26,400 -2,700 Descending Winnipeg Center
12:59AM 50.3500 -98.4333 106° East 460 529 23,600 -2,880 Descending Winnipeg Center
01:00AM 50.3167 -98.2500 106° East 450 518 20,700 -3,060 Descending Winnipeg Center
01:01AM 50.2833 -98.0667 106° East 440 506 17,500 -3,120 Descending Winnipeg Center
01:02AM 50.2167 -97.9000 122° Southeast 410 472 14,500 -3,000 Descending Winnipeg Center
01:03AM 50.1333 -97.8000 142° Southeast 400 460 11,600 -2,040 Descending Winnipeg Center
01:04AM 50.0667 -97.7000 136° Southeast 360 414 10,500 -1,020 Descending Winnipeg Center
01:05AM 50.0000 -97.6167 141° Southeast 310 357 9,600 -1,200 Descending Winnipeg Center
01:06AM 49.9333 -97.5167 136° Southeast 280 322 8,200 -1,800 Descending Winnipeg Center
01:07AM 49.8833 -97.4333 133° Southeast 260 299 6,100 -2,100 Descending Winnipeg Center
01:08AM 49.8167 -97.4000 162° South 260 299 4,100 -1,320 Descending Winnipeg Center
01:09AM 49.7500 -97.4000 180° South 240 276 3,500 -180 Descending Winnipeg Center
01:10AM 49.7000 -97.3333 139° Southeast 240 276 3,800  Climbing Winnipeg Center
01:11AM 49.7333 -97.2500 58° Northeast 200 230 3,600 -600 Descending Winnipeg Center
01:12AM 49.7833 -97.2500 360° North 170 196 2,600 -900 Descending Winnipeg Center
01:13AM 49.8333 -97.2500 360° North 130 150 1,800 -780 Descending Winnipeg Center
01:14AM 49.8667 -97.2333 18° North 130 150 1,100 -540 Descending Winnipeg Center
01:15AM 49.9000 -97.2333 360° North 50 58 800 -360 Descending Winnipeg Center